Panda — H8NH — position and weather

sailwx.info

Track history (hours):
 
Tides and Currents Weather Stations Pressure Air Temp Water Temp Dewpoint Dewpoint Depression Visibility Wind Speed Wind Dir Waves Ship Positions

Panda

Last reported at 2016-Apr-28 23:24 UTC. Time now 2016-Apr-29 01:51 UTC.
Position N 32°13' E 031°14'.

Length 171 m; draft 5 m.

Type: Cargo ship. MMSI: 352528000.

Date/timePositionNaut miles runAvg speedWind from/ knotsBaromVisibWave heightAir tempDewpointWater temp
2016-Apr-28 23:24N 32°13' E 031°14'911.2
2016-Apr-28 22:33N 32°06' E 031°21'1310.9
2016-Apr-28 21:20N 31°56' E 031°31'1310.6
2016-Apr-28 20:06N 31°46' E 031°41'810.4
2016-Apr-28 19:23N 31°40' E 031°47'  
2016-Apr-25 19:27N 31°27' E 031°46'0 0.0
2016-Apr-25 13:30N 31°27' E 031°46'0 0.0
2016-Apr-24 13:30N 31°27' E 031°46'0 0.0
2016-Apr-24 12:12N 31°27' E 031°46'0 0.0
2016-Apr-24 11:33N 31°27' E 031°46'0 0.0
2016-Apr-24 10:33N 31°27' E 031°46'0 0.0
2016-Apr-24 09:24N 31°27' E 031°46'0 0.0
2016-Apr-24 07:33N 31°27' E 031°46'0 0.0
2016-Apr-23 16:33N 31°27' E 031°46'0 0.0
2016-Apr-23 15:33N 31°27' E 031°46'0 0.0
2016-Apr-23 09:12N 31°27' E 031°46'0 0.0
2016-Apr-23 08:24N 31°27' E 031°46'0 0.0
2016-Apr-23 07:18N 31°27' E 031°46'0 0.0
2016-Apr-22 19:33N 31°27' E 031°46'0 0.0
2016-Apr-22 18:24N 31°27' E 031°46'0 0.0
2016-Apr-22 17:18N 31°27' E 031°46'0 0.0
2016-Apr-22 15:09N 31°27' E 031°46'0 0.0
2016-Apr-22 12:27N 31°27' E 031°46'0 0.0
2016-Apr-22 11:33N 31°27' E 031°46'0 0.0
2016-Apr-22 10:27N 31°27' E 031°46'0 0.0
2016-Apr-22 09:03N 31°27' E 031°46'0 0.0
2016-Apr-22 08:33N 31°27' E 031°46'1 0.1
2016-Apr-21 22:18N 31°29' E 031°45'5 7.3
2016-Apr-21 21:34N 31°34' E 031°47'6 6.3
2016-Apr-21 20:33N 31°38' E 031°41'0 0.3
2016-Apr-21 19:17N 31°38' E 031°40'0 0.0
2016-Apr-21 17:32N 31°37' E 031°40'0 0.0
2016-Apr-21 16:23N 31°37' E 031°40'0 0.0
2016-Apr-21 01:05N 31°38' E 031°40'0 0.0
2016-Apr-19 18:08N 31°37' E 031°40'0 0.0
2016-Apr-19 16:32N 31°37' E 031°40'0 0.0
2016-Apr-19 15:29N 31°37' E 031°40'0 0.0
2016-Apr-19 14:29N 31°37' E 031°40'0 0.0
2016-Apr-19 13:32N 31°37' E 031°40'0 0.0
2016-Apr-19 09:32N 31°37' E 031°40'0 0.0
2016-Apr-19 07:26N 31°37' E 031°40'0 0.0
2016-Apr-19 03:23N 31°38' E 031°40'0 0.0
2016-Apr-19 02:11N 31°38' E 031°40'  
Track history (hours):
 
Tides and Currents Weather Stations Pressure Air Temp Water Temp Dewpoint Dewpoint Depression Visibility Wind Speed Wind Dir Waves Ship Positions

Panda

Last reported at 2016-Apr-28 23:24 UTC. Time now 2016-Apr-29 01:51 UTC.
Position N 32°13' E 031°14'.

Length 171 m; draft 5 m.

Type: Cargo ship. MMSI: 352528000.

Date/timePositionNaut miles runAvg speedWind from/ knotsBaromVisibWave heightAir tempDewpointWater temp
2016-Apr-28 23:24N 32°13' E 031°14'911.2
2016-Apr-28 22:33N 32°06' E 031°21'1310.9
2016-Apr-28 21:20N 31°56' E 031°31'1310.6
2016-Apr-28 20:06N 31°46' E 031°41'810.4
2016-Apr-28 19:23N 31°40' E 031°47'  
2016-Apr-25 19:27N 31°27' E 031°46'0 0.0
2016-Apr-25 13:30N 31°27' E 031°46'0 0.0
2016-Apr-24 13:30N 31°27' E 031°46'0 0.0
2016-Apr-24 12:12N 31°27' E 031°46'0 0.0
2016-Apr-24 11:33N 31°27' E 031°46'0 0.0
2016-Apr-24 10:33N 31°27' E 031°46'0 0.0
2016-Apr-24 09:24N 31°27' E 031°46'0 0.0
2016-Apr-24 07:33N 31°27' E 031°46'0 0.0
2016-Apr-23 16:33N 31°27' E 031°46'0 0.0
2016-Apr-23 15:33N 31°27' E 031°46'0 0.0
2016-Apr-23 09:12N 31°27' E 031°46'0 0.0
2016-Apr-23 08:24N 31°27' E 031°46'0 0.0
2016-Apr-23 07:18N 31°27' E 031°46'0 0.0
2016-Apr-22 19:33N 31°27' E 031°46'0 0.0
2016-Apr-22 18:24N 31°27' E 031°46'0 0.0
2016-Apr-22 17:18N 31°27' E 031°46'0 0.0
2016-Apr-22 15:09N 31°27' E 031°46'0 0.0
2016-Apr-22 12:27N 31°27' E 031°46'0 0.0
2016-Apr-22 11:33N 31°27' E 031°46'0 0.0
2016-Apr-22 10:27N 31°27' E 031°46'0 0.0
2016-Apr-22 09:03N 31°27' E 031°46'0 0.0
2016-Apr-22 08:33N 31°27' E 031°46'1 0.1
2016-Apr-21 22:18N 31°29' E 031°45'5 7.3
2016-Apr-21 21:34N 31°34' E 031°47'6 6.3
2016-Apr-21 20:33N 31°38' E 031°41'0 0.3
2016-Apr-21 19:17N 31°38' E 031°40'0 0.0
2016-Apr-21 17:32N 31°37' E 031°40'0 0.0
2016-Apr-21 16:23N 31°37' E 031°40'0 0.0
2016-Apr-21 01:05N 31°38' E 031°40'0 0.0
2016-Apr-19 18:08N 31°37' E 031°40'0 0.0
2016-Apr-19 16:32N 31°37' E 031°40'0 0.0
2016-Apr-19 15:29N 31°37' E 031°40'0 0.0
2016-Apr-19 14:29N 31°37' E 031°40'0 0.0
2016-Apr-19 13:32N 31°37' E 031°40'0 0.0
2016-Apr-19 09:32N 31°37' E 031°40'0 0.0
2016-Apr-19 07:26N 31°37' E 031°40'0 0.0
2016-Apr-19 03:23N 31°38' E 031°40'0 0.0
2016-Apr-19 02:11N 31°38' E 031°40'  

Dump ship's entire track history